header
chart

Reported and forecast weather at local airports

Important: not to be used for flight planning purposes.


EGBB METAR fetched   Thursday 19th Oct @ 11:38:23
EGBB 191020Z 12004KT 080V150 2900 -RA BR SCT006 BKN014 13/13 Q1003 RERA

EGCC METAR fetched   Thursday 19th Oct @ 11:38:20
EGCC 191020Z VRB01KT 9999 7000NW NSC 13/10 Q1004

EGGP METAR fetched   Thursday 19th Oct @ 11:38:21
EGGP 191020Z 14008KT 110V170 5000 HZ OVC005 12/12 Q1003

EGNH METAR fetched   Thursday 19th Oct @ 11:38:22
EGNH 191020Z 13012KT 8000 FEW006 12/11 Q1003

EGNM METAR fetched   Thursday 19th Oct @ 11:38:23
EGNM 191020Z 14008KT 3000 BR SCT002 BKN004 11/11 Q1004

EGOV METAR fetched   Thursday 19th Oct @ 11:38:24
EGOV 190950Z 15016KT CAVOK 15/11 Q1000 BLU NOSIG


EGBB TAF fetched   Thursday 19th Oct @ 11:38:24
TAF AMD EGBB 191005Z 1910/2006 11004KT 6000 SCT005 BKN030 TEMPO 1910/1913 4000 RA BR BKN005 BECMG 1913/1915 9999 PROB40 TEMPO 1915/1918 8000 -RA BKN009 BECMG 1918/1921 14015KT PROB40 TEMPO 1921/1924 7000 RA BKN012 TEMPO 2000/2006 18015G25KT 7000 RA BKN010

EGCC TAF fetched   Thursday 19th Oct @ 11:38:20
TAF EGCC 190455Z 1906/2012 08004KT 8000 OVC006 BECMG 1906/1909 9999 SCT016 BECMG 1912/1915 14010KT PROB30 TEMPO 1914/1918 15015G25KT -RA BKN014 TEMPO 1918/2006 15015G25KT 8000 -RA BKN010 PROB40 TEMPO 1918/2001 RA TEMPO 2010/2012 15015G25KT 7000 RA BKN008

EGGP TAF fetched   Thursday 19th Oct @ 11:38:21
TAF AMD EGGP 191005Z 1910/2006 14007KT 6000 SCT004 BKN030 TEMPO 1910/1913 4000 BR BKN004 TEMPO 1918/2006 8000 -RA BKN010 PROB40 TEMPO 1918/1924 15015G25KT RA

EGNM TAF fetched   Thursday 19th Oct @ 11:38:23
TAF TAF EGNM 190456Z 1906/2006 12007KT 0200 FG BKN001 TEMPO 1906/1910 1500 BR SCT001 BECMG 1910/1913 6000 NSW SCT004 BKN015 TEMPO 1913/2004 2000 RADZ BKN004 PROB30 TEMPO 1913/1921 0800 FG BKN001 BECMG 2003/2006 28010KT

EGOV TAF fetched   Thursday 19th Oct @ 11:38:25
TAF TAF EGOV 190525Z 1906/1918 04008KT CAVOK PROB30 TEMPO 1906/1912 6000 SHRA TEMPO 1912/1915 4000 +SHRA SCT020 BKN030CB PROB30 TEMPO 1913/1915 VRBG20G30KT 2500 TSGR BKN012

Every effort is made to ensure that this information is free from errors but as it is provided by a third party the accuracy of the reports cannot be guaranteed.